createdAt,value
2019-06-07T03:45:54.896Z,13.50
2019-06-07T03:48:23.883Z,13.50
2019-06-07T03:51:04.307Z,13.40
2019-06-07T03:53:21.588Z,13.40
2019-06-07T03:55:49.639Z,13.40
2019-06-07T03:58:31.235Z,13.40
2019-06-07T04:00:47.533Z,13.40
2019-06-07T04:03:32.803Z,13.40
2019-06-07T04:05:45.371Z,13.40
2019-06-07T04:08:13.522Z,13.30
2019-06-07T04:10:57.894Z,13.20
2019-06-07T04:13:12.373Z,13.30
2019-06-07T04:15:41.464Z,13.30
2019-06-07T04:18:10.652Z,13.40
2019-06-07T04:20:41.300Z,13.40
2019-06-07T04:23:27.166Z,13.30
2019-06-07T04:25:42.408Z,13.40
2019-06-07T04:28:09.183Z,13.30
2019-06-07T04:30:41.789Z,13.20
2019-06-07T04:33:11.068Z,13.30
2019-06-07T04:35:42.874Z,13.30
2019-06-07T04:38:12.821Z,13.50
2019-06-07T04:40:43.531Z,13.60
2019-06-07T04:43:12.100Z,13.60
2019-06-07T04:45:50.066Z,13.70
2019-06-07T04:48:09.952Z,13.70
2019-06-07T04:50:43.485Z,13.80
2019-06-07T04:53:10.627Z,13.80
2019-06-07T04:55:41.611Z,13.90
2019-06-07T04:58:09.287Z,14.10
2019-06-07T05:00:59.303Z,14.20
2019-06-07T05:03:07.073Z,14.20
2019-06-07T05:05:40.909Z,14.20
2019-06-07T05:08:07.379Z,14.20
2019-06-07T05:10:38.102Z,14.30
2019-06-07T05:13:04.833Z,14.30
2019-06-07T05:15:34.574Z,14.20
2019-06-07T05:18:03.360Z,14.20
2019-06-07T05:20:33.637Z,14.30
2019-06-07T05:23:01.216Z,14.40
2019-06-07T05:25:31.751Z,14.50
2019-06-07T05:28:00.870Z,14.70
2019-06-07T05:33:02.990Z,14.60
2019-06-07T05:35:33.084Z,14.60
2019-06-07T05:38:03.954Z,14.70
2019-06-07T05:40:34.934Z,14.70
2019-06-07T05:43:03.974Z,14.70
2019-06-07T05:45:37.506Z,14.70
2019-06-07T05:48:02.883Z,14.70
2019-06-07T05:50:41.998Z,14.80
2019-06-07T05:53:02.587Z,14.90
2019-06-07T05:55:31.211Z,15.00
2019-06-07T05:58:00.476Z,15.10
2019-06-07T06:00:29.435Z,15.10
2019-06-07T06:03:05.329Z,15.10
2019-06-07T06:05:34.485Z,15.20
2019-06-07T06:07:57.144Z,15.10
2019-06-07T06:10:25.234Z,15.10
2019-06-07T06:12:57.215Z,15.20
2019-06-07T06:15:41.656Z,15.20
2019-06-07T06:17:54.918Z,15.20
2019-06-07T06:20:23.059Z,15.20
2019-06-07T06:22:51.284Z,15.20
2019-06-07T06:25:38.658Z,15.10
2019-06-07T06:28:10.216Z,15.20
2019-06-07T06:30:20.876Z,15.20
2019-06-07T06:32:56.897Z,15.20
2019-06-07T06:35:19.501Z,15.10
2019-06-07T06:37:52.950Z,15.10
2019-06-07T06:40:17.735Z,15.00
2019-06-07T06:42:49.088Z,15.10
2019-06-07T06:48:28.567Z,15.00
2019-06-07T06:50:56.646Z,15.00
2019-06-07T06:53:24.627Z,15.10
2019-06-07T06:55:52.687Z,15.00
2019-06-07T06:58:20.741Z,14.80
2019-06-07T07:01:04.964Z,15.00
2019-06-07T07:05:54.164Z,15.30
2019-06-07T07:08:20.059Z,15.40
2019-06-07T07:10:51.074Z,15.50
2019-06-07T07:13:17.736Z,15.60
2019-06-07T07:15:50.012Z,15.60
2019-06-07T07:18:15.416Z,15.60
2019-06-07T07:20:45.259Z,15.50
2019-06-07T07:23:13.142Z,15.60
2019-06-07T07:25:43.509Z,15.60
2019-06-07T07:28:10.821Z,15.70
2019-06-07T07:30:41.970Z,15.70
2019-06-07T07:33:10.560Z,15.70
2019-06-07T07:35:39.221Z,15.80
2019-06-07T07:38:07.426Z,15.90
2019-06-07T07:40:57.175Z,16.10
2019-06-07T07:43:05.497Z,16.10
2019-06-07T07:45:33.494Z,16.20
2019-06-07T07:48:14.646Z,16.30
2019-06-07T07:50:31.313Z,16.40
2019-06-07T07:53:00.673Z,16.40
2019-06-07T07:55:28.923Z,16.50
2019-06-07T07:58:01.798Z,16.60
2019-06-07T08:00:50.400Z,16.70
2019-06-07T08:03:01.719Z,16.80
2019-06-07T08:05:42.048Z,16.80
2019-06-07T08:08:00.285Z,16.80
2019-06-07T08:10:25.752Z,16.80
2019-06-07T08:13:14.210Z,16.90
2019-06-07T08:15:23.425Z,16.90
2019-06-07T08:17:56.031Z,16.90
2019-06-07T08:20:21.167Z,17.00
2019-06-07T08:22:49.979Z,17.10
2019-06-07T08:25:18.424Z,17.00
2019-06-07T08:27:47.035Z,17.00
2019-06-07T08:30:47.185Z,16.90
2019-06-07T08:32:46.173Z,16.80
2019-06-07T08:36:02.544Z,16.80
2019-06-07T08:40:14.150Z,17.10
2019-06-07T08:42:59.790Z,17.30
2019-06-07T08:45:13.393Z,17.10
2019-06-07T08:47:41.369Z,17.40
2019-06-07T08:50:10.518Z,17.50
2019-06-07T08:52:38.549Z,17.50
2019-06-07T08:55:06.675Z,17.60
2019-06-07T08:57:34.700Z,17.60
2019-06-07T09:00:15.581Z,17.60
2019-06-07T09:02:33.800Z,17.80
2019-06-07T09:05:11.185Z,17.80
2019-06-07T09:07:31.637Z,17.90
2019-06-07T09:10:03.594Z,17.90
2019-06-07T09:12:29.321Z,17.90
2019-06-07T09:15:12.127Z,17.90
2019-06-07T09:17:26.998Z,18.00
2019-06-07T09:19:56.257Z,18.00
2019-06-07T09:22:24.663Z,18.10
2019-06-07T09:24:52.645Z,18.00
2019-06-07T09:27:20.792Z,17.90
2019-06-07T09:29:48.860Z,18.00
2019-06-07T09:32:18.631Z,18.20
2019-06-07T09:34:46.770Z,18.40
2019-06-07T09:38:03.121Z,18.50
2019-06-07T09:39:44.620Z,18.60
2019-06-07T09:42:12.936Z,18.70
2019-06-07T09:44:41.001Z,18.70
2019-06-07T09:47:30.216Z,18.60
2019-06-07T09:49:38.680Z,18.50
2019-06-07T09:52:10.372Z,18.70
2019-06-07T09:55:05.957Z,18.80
2019-06-07T09:57:15.980Z,18.90
2019-06-07T09:59:35.826Z,19.00
2019-06-07T10:02:06.421Z,19.20
2019-06-07T10:04:33.646Z,19.10
2019-06-07T10:07:10.581Z,19.30
2019-06-07T10:12:02.840Z,19.40
2019-06-07T10:14:31.043Z,19.40
2019-06-07T10:16:59.107Z,19.40
2019-06-07T10:19:27.273Z,19.40
2019-06-07T10:21:55.272Z,19.40
2019-06-07T10:24:23.319Z,19.50
2019-06-07T10:26:51.343Z,19.50
2019-06-07T10:29:19.393Z,19.50
2019-06-07T10:31:47.393Z,19.70
2019-06-07T10:34:15.449Z,19.70
2019-06-07T10:36:43.470Z,19.80
2019-06-07T10:39:11.524Z,19.90
2019-06-07T10:41:39.510Z,19.90
2019-06-07T10:44:07.559Z,20.10
2019-06-07T10:46:35.555Z,20.20
2019-06-07T10:49:03.875Z,20.40
2019-06-07T10:51:31.929Z,20.40
2019-06-07T10:53:59.919Z,20.40
2019-06-07T10:56:27.946Z,20.50
2019-06-07T10:58:55.961Z,20.50
2019-06-07T11:01:23.946Z,20.60
2019-06-07T11:03:52.000Z,20.60
2019-06-07T11:06:20.017Z,20.60
2019-06-07T11:08:48.053Z,20.70
2019-06-07T11:11:16.028Z,20.80
2019-06-07T11:13:44.016Z,20.90
2019-06-07T11:16:13.054Z,20.90
2019-06-07T11:18:41.226Z,21.00
2019-06-07T11:21:10.090Z,21.00
2019-06-07T11:23:38.242Z,21.10
2019-06-07T11:26:06.257Z,21.10
2019-06-07T11:28:34.292Z,21.20
2019-06-07T11:31:02.273Z,21.20
2019-06-07T11:33:30.265Z,21.30
2019-06-07T11:35:58.266Z,21.50
2019-06-07T11:38:26.284Z,21.60
2019-06-07T11:40:54.269Z,21.70
2019-06-07T11:43:22.270Z,21.70
2019-06-07T11:45:50.264Z,21.70
2019-06-07T11:48:18.321Z,21.70
2019-06-07T11:50:46.308Z,21.80
2019-06-07T11:53:14.634Z,21.90
2019-06-07T11:55:42.925Z,22.00
2019-06-07T11:58:15.140Z,22.10
2019-06-07T12:00:40.646Z,22.20
2019-06-07T12:03:09.444Z,22.30
2019-06-07T12:05:37.609Z,22.50
2019-06-07T12:08:05.658Z,22.50
2019-06-07T12:10:42.016Z,22.60
2019-06-07T12:13:03.502Z,22.70
2019-06-07T12:15:31.526Z,22.80
2019-06-07T12:17:59.583Z,22.80
2019-06-07T12:20:27.567Z,22.90
2019-06-07T12:22:55.563Z,23.00
2019-06-07T12:25:25.164Z,23.10
2019-06-07T12:27:53.325Z,23.10
2019-06-07T12:30:27.227Z,23.20
2019-06-07T12:32:51.084Z,23.30
2019-06-07T12:35:19.974Z,23.30
2019-06-07T12:37:48.153Z,23.40
2019-06-07T12:40:26.532Z,23.60
2019-06-07T12:42:46.009Z,23.70
2019-06-07T12:45:32.349Z,23.70
2019-06-07T12:47:46.687Z,23.70
2019-06-07T12:50:15.409Z,23.80
2019-06-07T12:52:43.508Z,23.80
2019-06-07T12:55:11.566Z,23.90
2019-06-07T12:57:39.572Z,24.00
2019-06-07T13:00:09.103Z,24.10
2019-06-07T13:02:37.081Z,24.10
2019-06-07T13:05:07.978Z,24.20
2019-06-07T13:07:35.957Z,24.20
2019-06-07T13:10:05.542Z,24.30
2019-06-07T13:12:33.517Z,24.40
2019-06-07T13:15:01.605Z,24.50
2019-06-07T13:17:29.668Z,24.50
2019-06-07T13:19:57.660Z,24.50
2019-06-07T13:22:25.693Z,24.70
2019-06-07T13:24:53.677Z,24.70
2019-06-07T13:27:22.509Z,24.70
2019-06-07T13:29:50.551Z,24.70
2019-06-07T13:32:19.559Z,24.80
2019-06-07T13:34:47.633Z,24.90
2019-06-07T13:37:16.898Z,24.90
2019-06-07T13:39:45.077Z,24.90
2019-06-07T13:42:13.093Z,25.10
2019-06-07T13:44:41.156Z,25.20
2019-06-07T13:47:09.180Z,25.30
2019-06-07T13:49:37.176Z,25.40
2019-06-07T13:52:05.245Z,25.50
2019-06-07T13:54:33.251Z,25.60
2019-06-07T13:57:02.879Z,25.70
2019-06-07T13:59:31.018Z,25.70
2019-06-07T14:01:59.066Z,25.70
2019-06-07T14:04:27.127Z,25.80
2019-06-07T14:06:55.111Z,25.90
2019-06-07T14:09:23.294Z,25.90
2019-06-07T14:11:51.358Z,26.10
2019-06-07T14:14:20.142Z,26.10
2019-06-07T14:16:48.306Z,26.00
2019-06-07T14:19:16.307Z,26.00
2019-06-07T14:21:44.360Z,26.20
2019-06-07T14:24:12.352Z,26.30
2019-06-07T14:26:42.311Z,26.30
2019-06-07T14:29:10.582Z,26.40
2019-06-07T14:31:38.578Z,26.40
2019-06-07T14:34:06.658Z,26.40
2019-06-07T14:36:34.658Z,26.30
2019-06-07T14:39:02.686Z,26.30
2019-06-07T14:41:31.766Z,26.30
2019-06-07T14:43:59.989Z,26.50
2019-06-07T14:46:28.210Z,26.60
2019-06-07T14:48:56.197Z,26.60
2019-06-07T14:51:24.265Z,26.70
2019-06-07T14:53:52.726Z,26.60
2019-06-07T14:56:20.722Z,26.60
2019-06-07T14:58:48.836Z,26.60
2019-06-07T15:01:17.011Z,26.60
2019-06-07T15:03:45.085Z,26.60
2019-06-07T15:06:14.152Z,26.70
2019-06-07T15:08:42.318Z,26.80
2019-06-07T15:11:10.321Z,26.90
2019-06-07T15:13:39.887Z,27.00
2019-06-07T15:16:08.093Z,27.10
2019-06-07T15:18:36.289Z,27.10
2019-06-07T15:21:04.399Z,27.10
2019-06-07T15:23:33.496Z,27.10
2019-06-07T15:26:01.663Z,27.10
2019-06-07T15:28:30.190Z,27.20
2019-06-07T15:30:58.230Z,27.20
2019-06-07T15:33:26.531Z,27.20
2019-06-07T15:35:55.805Z,27.20
2019-06-07T15:38:23.799Z,27.20
2019-06-07T15:40:51.858Z,27.20
2019-06-07T15:43:19.840Z,27.00
2019-06-07T15:45:47.834Z,27.10
2019-06-07T15:48:15.984Z,27.00
2019-06-07T15:50:43.980Z,27.00
2019-06-07T15:53:11.957Z,27.00
2019-06-07T15:55:45.280Z,26.90
2019-06-07T15:58:09.630Z,26.90
2019-06-07T16:00:37.681Z,27.00
2019-06-07T16:03:05.674Z,26.90
2019-06-07T16:05:34.215Z,26.80
2019-06-07T16:08:02.321Z,26.60
2019-06-07T16:10:30.301Z,26.70
2019-06-07T16:13:00.678Z,26.70
2019-06-07T16:15:27.958Z,26.80
2019-06-07T16:17:56.009Z,26.80
2019-06-07T16:20:23.986Z,26.70
2019-06-07T16:22:51.973Z,26.70
2019-06-07T16:25:20.028Z,26.50
2019-06-07T16:27:48.014Z,26.30
2019-06-07T16:30:16.194Z,26.00
2019-06-07T16:32:46.201Z,25.70
2019-06-07T16:35:14.159Z,25.70
2019-06-07T16:37:42.988Z,25.50
2019-06-07T16:40:12.269Z,25.40
2019-06-07T16:42:40.715Z,25.30
2019-06-07T16:45:09.725Z,25.50
2019-06-07T16:47:40.296Z,25.70
2019-06-07T16:50:07.735Z,25.80
2019-06-07T16:52:37.166Z,25.90
2019-06-07T16:55:06.817Z,25.80
2019-06-07T16:57:34.876Z,25.80
2019-06-07T17:00:02.972Z,25.80
2019-06-07T17:02:30.973Z,25.90
2019-06-07T17:04:58.953Z,26.00
2019-06-07T17:07:26.990Z,25.70
2019-06-07T17:09:54.969Z,25.60
2019-06-07T17:12:22.967Z,25.30
2019-06-07T17:14:50.945Z,25.30
2019-06-07T17:17:18.942Z,25.10
2019-06-07T17:19:47.123Z,24.90
2019-06-07T17:22:15.240Z,24.90
2019-06-07T17:24:43.484Z,24.90
2019-06-07T17:27:11.588Z,25.00
2019-06-07T17:29:39.809Z,25.00
2019-06-07T17:32:07.877Z,25.00
2019-06-07T17:34:35.926Z,24.80
2019-06-07T17:37:04.065Z,24.80
2019-06-07T17:39:32.154Z,24.80
2019-06-07T17:42:02.390Z,24.60
2019-06-07T17:44:29.861Z,24.50
2019-06-07T17:46:57.874Z,24.20
2019-06-07T17:49:25.857Z,24.10
2019-06-07T17:51:53.881Z,24.10
2019-06-07T17:54:21.932Z,23.90
2019-06-07T17:56:50.556Z,23.80
2019-06-07T17:59:18.647Z,23.80
2019-06-07T18:02:07.093Z,23.70
2019-06-07T18:04:16.794Z,23.70
2019-06-07T18:06:45.307Z,23.60
2019-06-07T18:09:14.208Z,23.60
2019-06-07T18:11:42.295Z,23.50
2019-06-07T18:14:11.218Z,23.50
2019-06-07T18:16:39.555Z,23.40
2019-06-07T18:19:07.557Z,23.20
2019-06-07T18:21:35.569Z,23.10
2019-06-07T18:24:03.680Z,22.80
2019-06-07T18:26:31.698Z,22.50
2019-06-07T18:28:59.778Z,22.20
2019-06-07T18:31:27.786Z,22.00
2019-06-07T18:33:55.867Z,21.90
2019-06-07T18:36:23.944Z,21.70
2019-06-07T18:38:53.027Z,21.70
2019-06-07T18:41:21.136Z,21.60
2019-06-07T18:43:49.257Z,21.30
2019-06-07T18:46:17.294Z,21.20
2019-06-07T18:48:46.431Z,20.90
2019-06-07T18:51:14.568Z,20.80
2019-06-07T18:53:42.677Z,20.70
2019-06-07T18:56:10.782Z,20.70
2019-06-07T18:58:38.834Z,20.50
2019-06-07T19:01:06.904Z,20.50
2019-06-07T19:03:34.928Z,20.10
2019-06-07T19:06:03.416Z,19.80
2019-06-07T19:08:31.577Z,19.70
2019-06-07T19:10:59.650Z,19.60
2019-06-07T19:13:27.636Z,19.10
2019-06-07T19:15:55.638Z,18.90
2019-06-07T19:18:23.830Z,18.70
2019-06-07T19:20:52.437Z,18.50
2019-06-07T19:23:20.612Z,18.60
2019-06-07T19:25:50.072Z,18.70
2019-06-07T19:28:18.248Z,18.50
2019-06-07T19:30:46.254Z,18.30
2019-06-07T19:33:14.325Z,18.10
2019-06-07T19:35:42.335Z,17.90
2019-06-07T19:38:10.445Z,18.10
2019-06-07T19:40:38.506Z,18.20
2019-06-07T19:43:06.791Z,18.00
2019-06-07T19:45:34.850Z,17.90
2019-06-07T19:48:02.937Z,17.60
2019-06-07T19:50:31.041Z,17.30
2019-06-07T19:52:59.244Z,17.40
2019-06-07T19:55:27.332Z,17.40
2019-06-07T19:57:55.559Z,17.40
2019-06-07T20:00:23.701Z,17.10
2019-06-07T20:02:51.782Z,17.20
2019-06-07T20:05:19.960Z,17.20
2019-06-07T20:07:48.043Z,17.00
2019-06-07T20:10:16.186Z,17.00
2019-06-07T20:12:44.248Z,17.00
2019-06-07T20:15:27.803Z,16.90
2019-06-07T20:17:42.330Z,16.70
2019-06-07T20:20:10.967Z,16.80
2019-06-07T20:22:40.239Z,16.50
2019-06-07T20:25:10.484Z,16.40
2019-06-07T20:27:40.484Z,16.50
2019-06-07T20:30:12.364Z,16.50
2019-06-07T20:32:42.065Z,16.40
2019-06-07T20:35:11.215Z,16.20
2019-06-07T20:37:39.982Z,16.20
2019-06-07T20:40:22.824Z,16.10
2019-06-07T20:42:38.415Z,16.30
2019-06-07T20:45:08.140Z,16.50
2019-06-07T20:47:36.586Z,16.60
2019-06-07T20:50:06.307Z,16.70
2019-06-07T20:52:34.480Z,16.80
2019-06-07T20:55:03.116Z,16.80
2019-06-07T20:57:31.237Z,16.90
2019-06-07T21:00:00.798Z,17.00
2019-06-07T21:02:29.015Z,17.10
2019-06-07T21:04:57.055Z,17.20
2019-06-07T21:07:25.303Z,17.20
2019-06-07T21:09:53.879Z,17.00
2019-06-07T21:12:22.013Z,16.90
2019-06-07T21:14:50.018Z,16.90
2019-06-07T21:17:18.015Z,16.80
2019-06-07T21:19:46.023Z,16.80
2019-06-07T21:22:13.997Z,16.60
2019-06-07T21:24:42.015Z,16.60
2019-06-07T21:27:11.304Z,16.50
2019-06-07T21:29:39.739Z,16.60
2019-06-07T21:32:07.758Z,16.30
2019-06-07T21:34:35.745Z,16.50
2019-06-07T21:37:03.888Z,16.40
2019-06-07T21:39:31.903Z,16.50
2019-06-07T21:41:59.885Z,16.60
2019-06-07T21:44:27.882Z,16.70
2019-06-07T21:46:55.866Z,16.50
2019-06-07T21:49:23.863Z,16.30
2019-06-07T21:51:51.842Z,16.50
2019-06-07T21:54:20.023Z,16.40
2019-06-07T21:56:48.273Z,16.30
2019-06-07T21:59:16.431Z,16.30
2019-06-07T22:01:44.690Z,16.10
2019-06-07T22:04:13.674Z,15.80
2019-06-07T22:06:42.057Z,15.50
2019-06-07T22:09:10.243Z,15.60
2019-06-07T22:11:38.526Z,15.60
2019-06-07T22:14:08.216Z,15.50
2019-06-07T22:16:36.455Z,15.30
2019-06-07T22:19:04.584Z,15.30
2019-06-07T22:21:32.669Z,15.30
2019-06-07T22:24:00.649Z,15.40
2019-06-07T22:26:28.632Z,15.40
2019-06-07T22:28:56.622Z,15.40
2019-06-07T22:31:24.688Z,15.30
2019-06-07T22:33:52.675Z,15.40
2019-06-07T22:36:20.687Z,15.60
2019-06-07T22:38:48.662Z,15.40
2019-06-07T22:41:17.642Z,15.50
2019-06-07T22:43:45.759Z,15.60
2019-06-07T22:46:15.009Z,15.60
2019-06-07T22:48:43.160Z,15.70
2019-06-07T22:51:12.654Z,16.00
2019-06-07T22:53:43.599Z,16.20
2019-06-07T22:56:13.929Z,16.30
2019-06-07T22:58:41.969Z,16.30
2019-06-07T23:01:10.380Z,16.40
2019-06-07T23:03:38.408Z,16.30
2019-06-07T23:06:06.407Z,16.20
2019-06-07T23:08:34.380Z,16.10
2019-06-07T23:11:02.425Z,16.00
2019-06-07T23:13:30.405Z,16.00
2019-06-07T23:15:58.429Z,16.10
2019-06-07T23:18:26.417Z,16.20
2019-06-07T23:20:54.402Z,16.40
2019-06-07T23:23:23.529Z,16.40
2019-06-07T23:25:51.658Z,16.40
2019-06-07T23:28:20.643Z,16.60
